Time;durP1;ratioP1;P1;durP2;ratioP2;P2;SDS_P1;SDS_P2;PMS_P1;PMS_P2;Temp;Humidity;BMP_temperature;BMP_pressure;BME280_temperature;BME280_humidity;BME280_pressure;Samples;Min_cycle;Max_cycle;Signal;HPM_P1;HPM_P2
2023/06/18 00:00:47;;;;;;;;;;;;;;;21.09;60.71;101292.34;4914057;29;19921;-70
2023/06/18 00:03:13;;;;;;;;;;;;;;;21.06;60.98;101289.19;4929866;29;19919;-69
2023/06/18 00:05:38;;;;;;;;;;;;;;;21.04;60.77;101292.25;4917968;29;19947;-69
2023/06/18 00:08:05;;;;;;;;;;;;;;;21.08;61.18;101295.38;4925683;29;19914;-69
2023/06/18 00:10:31;;;;;;;;;;;;;;;20.99;60.50;101297.75;4909250;29;19965;-69
2023/06/18 00:12:56;;;;;;;;;;;;;;;20.98;61.83;101289.63;4931722;29;19950;-70
2023/06/18 00:15:21;;;;;;;;;;;;;;;20.96;62.33;101289.06;4929337;29;20021;-70
2023/06/18 00:17:46;;;;;;;;;;;;;;;20.92;62.03;101282.28;4909049;29;19930;-71
2023/06/18 00:20:12;;;;;;;;;;;;;;;20.94;62.03;101272.59;4912573;29;20105;-70
2023/06/18 00:22:38;;;;;;;;;;;;;;;20.93;61.68;101278.41;4916084;29;19923;-70
2023/06/18 00:25:06;;;;;;;;;;;;;;;20.92;62.66;101276.72;4926396;29;20006;-70
2023/06/18 00:27:31;;;;;;;;;;;;;;;20.87;62.54;101268.25;4914661;29;20014;-70
2023/06/18 00:29:57;;;;;;;;;;;;;;;20.85;62.70;101271.28;4926244;29;20001;-70
2023/06/18 00:32:22;;;;;;;;;;;;;;;20.91;62.16;101272.25;4926266;29;19925;-71
2023/06/18 00:34:47;;;;;;;;;;;;;;;20.84;62.66;101272.38;4925809;29;19943;-70
2023/06/18 00:37:13;;;;;;;;;;;;;;;20.80;63.10;101273.97;4929674;29;19922;-70
2023/06/18 00:39:38;;;;;;;;;;;;;;;20.78;63.21;101264.19;4921007;29;19915;-69
2023/06/18 00:42:05;;;;;;;;;;;;;;;20.76;63.18;101269.19;4925621;29;20115;-71
2023/06/18 00:44:32;;;;;;;;;;;;;;;20.73;63.06;101267.75;4931618;29;20383;-70
2023/06/18 00:46:59;;;;;;;;;;;;;;;20.62;63.37;101262.25;4927188;29;19918;-70
2023/06/18 00:49:26;;;;;;;;;;;;;;;20.61;63.79;101266.16;4930828;29;19915;-70
2023/06/18 00:51:52;;;;;;;;;;;;;;;20.59;64.21;101269.16;4911647;29;19919;-70
2023/06/18 00:54:18;;;;;;;;;;;;;;;20.58;63.91;101259.13;4913683;29;19925;-69
2023/06/18 00:56:53;;;;;;;;;;;;;;;20.59;63.52;101249.69;4928175;29;20009;-70
2023/06/18 00:59:22;;;;;;;;;;;;;;;20.56;63.62;101246.56;4927464;29;19961;-69
2023/06/18 01:01:48;;;;;;;;;;;;;;;20.54;63.71;101252.38;4929078;29;19914;-71
2023/06/18 01:04:14;;;;;;;;;;;;;;;20.46;64.10;101254.75;4929274;29;20389;-71
2023/06/18 01:06:39;;;;;;;;;;;;;;;20.40;64.47;101245.47;4927873;29;19953;-71
2023/06/18 01:09:05;;;;;;;;;;;;;;;20.34;65.18;101242.84;4928928;29;19937;-71
2023/06/18 01:11:33;;;;;;;;;;;;;;;20.27;65.17;101247.72;4931755;29;19922;-70
2023/06/18 01:13:59;;;;;;;;;;;;;;;20.18;66.23;101243.66;4929856;29;19914;-72
2023/06/18 01:16:24;;;;;;;;;;;;;;;20.07;66.39;101241.78;4916855;29;19925;-71
2023/06/18 01:18:51;;;;;;;;;;;;;;;20.02;66.36;101245.25;4917281;29;20021;-71
2023/06/18 01:21:19;;;;;;;;;;;;;;;19.97;67.14;101238.78;4929128;29;19919;-70
2023/06/18 01:23:52;;;;;;;;;;;;;;;19.90;67.59;101243.66;4927661;29;19957;-71
2023/06/18 01:26:21;;;;;;;;;;;;;;;19.80;67.70;101243.44;4927943;29;19919;-71
2023/06/18 01:28:53;;;;;;;;;;;;;;;19.76;67.33;101237.56;4911961;29;19969;-71
2023/06/18 01:31:21;;;;;;;;;;;;;;;19.75;68.46;101238.63;4928152;29;20101;-71
2023/06/18 01:33:51;;;;;;;;;;;;;;;19.70;68.30;101226.56;4917630;29;19946;-72
2023/06/18 01:36:47;;;;;;;;;;;;;;;19.64;68.35;101227.56;4930583;29;20256;-71
2023/06/18 01:39:16;;;;;;;;;;;;;;;19.57;68.69;101227.69;4925305;29;20409;-71
2023/06/18 01:41:45;;;;;;;;;;;;;;;19.52;69.12;101223.97;4919277;29;20030;-71
2023/06/18 01:44:13;;;;;;;;;;;;;;;19.48;69.42;101228.34;4912899;29;20382;-72
2023/06/18 01:46:40;;;;;;;;;;;;;;;19.49;69.05;101213.34;4920613;29;19918;-72
2023/06/18 01:49:07;;;;;;;;;;;;;;;19.48;69.17;101218.03;4926522;29;19918;-72
2023/06/18 01:51:35;;;;;;;;;;;;;;;19.44;68.61;101216.88;4924183;29;20291;-72
2023/06/18 01:54:01;;;;;;;;;;;;;;;19.45;69.15;101217.69;4912770;29;19915;-72
2023/06/18 01:56:29;;;;;;;;;;;;;;;19.49;69.07;101216.13;4914478;29;20041;-71
2023/06/18 01:58:55;;;;;;;;;;;;;;;19.49;68.99;101211.41;4921124;29;19915;-72
2023/06/18 02:01:23;;;;;;;;;;;;;;;19.51;69.16;101205.59;4927381;29;19915;-71
2023/06/18 02:03:48;;;;;;;;;;;;;;;19.51;68.55;101202.81;4920746;29;20005;-72
2023/06/18 02:06:14;;;;;;;;;;;;;;;19.52;68.81;101197.00;4915582;29;20005;-72
2023/06/18 02:08:39;;;;;;;;;;;;;;;19.56;68.19;101202.91;4925586;29;19922;-72
2023/06/18 02:11:04;;;;;;;;;;;;;;;19.63;67.80;101201.69;4921658;29;19922;-71
2023/06/18 02:13:30;;;;;;;;;;;;;;;19.65;68.07;101202.31;4929089;29;19919;-72
2023/06/18 02:15:55;;;;;;;;;;;;;;;19.63;67.53;101204.47;4909613;29;20360;-72
2023/06/18 02:18:20;;;;;;;;;;;;;;;19.64;67.69;101199.75;4923694;29;19979;-72
2023/06/18 02:20:46;;;;;;;;;;;;;;;19.64;67.56;101194.19;4925964;29;20266;-70
2023/06/18 02:23:12;;;;;;;;;;;;;;;19.56;68.10;101189.03;4922725;29;19919;-70
2023/06/18 02:25:37;;;;;;;;;;;;;;;19.49;68.51;101186.41;4912388;29;19919;-71
2023/06/18 02:28:03;;;;;;;;;;;;;;;19.55;68.78;101188.19;4908076;29;20005;-71
2023/06/18 02:30:29;;;;;;;;;;;;;;;19.53;68.34;101190.34;4914783;29;19961;-70
2023/06/18 02:32:55;;;;;;;;;;;;;;;19.49;68.35;101194.75;4924870;29;19953;-70
2023/06/18 02:35:20;;;;;;;;;;;;;;;19.45;68.97;101192.69;4931579;29;19918;-71
2023/06/18 02:37:46;;;;;;;;;;;;;;;19.51;69.05;101188.91;4916147;29;19969;-71
2023/06/18 02:40:13;;;;;;;;;;;;;;;19.45;69.21;101196.31;4929261;29;19918;-71
2023/06/18 02:42:46;;;;;;;;;;;;;;;19.43;69.55;101198.47;4907227;29;19919;-71
2023/06/18 02:45:13;;;;;;;;;;;;;;;19.39;69.35;101199.22;4924429;29;19978;-71
2023/06/18 02:47:38;;;;;;;;;;;;;;;19.45;69.48;101192.69;4924552;29;20013;-70
2023/06/18 02:50:04;;;;;;;;;;;;;;;19.48;69.52;101200.53;4923440;29;20009;-72
2023/06/18 02:52:29;;;;;;;;;;;;;;;19.49;70.19;101196.66;4908158;29;19966;-72
2023/06/18 02:54:54;;;;;;;;;;;;;;;19.46;69.98;101200.78;4927518;29;20374;-72
2023/06/18 02:57:20;;;;;;;;;;;;;;;19.40;69.88;101195.34;4919175;29;19923;-72
2023/06/18 02:59:45;;;;;;;;;;;;;;;19.37;70.57;101195.88;4925212;29;19911;-72
2023/06/18 03:02:11;;;;;;;;;;;;;;;19.32;70.80;101190.22;4910187;29;20025;-72
2023/06/18 03:04:36;;;;;;;;;;;;;;;19.28;70.98;101189.84;4925871;29;20714;-72
2023/06/18 03:07:01;;;;;;;;;;;;;;;19.19;71.75;101187.66;4928779;29;19918;-72
2023/06/18 03:09:27;;;;;;;;;;;;;;;19.22;71.62;101193.59;4923462;29;19918;-72
2023/06/18 03:11:53;;;;;;;;;;;;;;;19.21;71.09;101188.28;4924200;29;19997;-71
2023/06/18 03:14:21;;;;;;;;;;;;;;;19.14;72.36;101193.09;4924246;29;19921;-71
2023/06/18 03:16:47;;;;;;;;;;;;;;;19.13;72.37;101197.81;4923144;29;19926;-71
2023/06/18 03:24:24;;;;;;;;;;;;;;;19.00;72.82;101194.47;4988920;23;19930;-74
2023/06/18 03:26:50;;;;;;;;;;;;;;;18.94;73.10;101192.66;4958250;28;19977;-77
2023/06/18 03:29:16;;;;;;;;;;;;;;;18.87;73.74;101200.25;4939168;28;19914;-75
2023/06/18 03:31:41;;;;;;;;;;;;;;;18.85;73.86;101194.13;4969828;28;19918;-75
2023/06/18 03:34:07;;;;;;;;;;;;;;;18.81;73.83;101201.22;4966196;28;19918;-74
2023/06/18 03:36:39;;;;;;;;;;;;;;;18.82;74.19;101192.66;4966302;28;19965;-75
2023/06/18 03:39:11;;;;;;;;;;;;;;;18.79;74.78;101184.81;4950829;28;19965;-74
2023/06/18 03:41:37;;;;;;;;;;;;;;;18.85;75.07;101196.91;4965993;28;20369;-75
2023/06/18 03:44:03;;;;;;;;;;;;;;;18.80;75.26;101197.63;4969076;28;19922;-75
2023/06/18 03:46:30;;;;;;;;;;;;;;;18.74;75.41;101197.75;4970831;28;19941;-75
2023/06/18 03:48:56;;;;;;;;;;;;;;;18.68;75.30;101196.78;4952469;28;19917;-75
2023/06/18 03:51:21;;;;;;;;;;;;;;;18.75;76.01;101196.66;4971170;28;20207;-75
2023/06/18 03:53:46;;;;;;;;;;;;;;;18.78;76.16;101201.72;4969346;28;19941;-74
2023/06/18 03:56:12;;;;;;;;;;;;;;;18.82;75.57;101200.13;4975447;28;19918;-75
2023/06/18 03:58:37;;;;;;;;;;;;;;;18.85;75.89;101194.13;4969454;28;20361;-75
2023/06/18 04:01:02;;;;;;;;;;;;;;;18.93;75.94;101193.72;4971611;28;19920;-75
2023/06/18 04:03:27;;;;;;;;;;;;;;;19.01;75.20;101194.22;4967921;28;19962;-75
2023/06/18 04:05:53;;;;;;;;;;;;;;;19.03;75.37;101199.53;4972756;28;19913;-75
2023/06/18 04:08:19;;;;;;;;;;;;;;;19.03;75.22;101197.59;4970031;28;19922;-75
2023/06/18 04:10:47;;;;;;;;;;;;;;;19.04;74.56;101192.91;4933911;28;19949;-74
2023/06/18 04:13:16;;;;;;;;;;;;;;;19.09;74.56;101195.75;4970497;28;19926;-74
2023/06/18 04:15:42;;;;;;;;;;;;;;;19.06;74.87;101201.81;4971034;28;20449;-75
2023/06/18 04:18:07;;;;;;;;;;;;;;;19.14;74.93;101198.66;4967639;28;19918;-75
2023/06/18 04:20:33;;;;;;;;;;;;;;;19.14;74.50;101198.66;4945739;28;19914;-75
2023/06/18 04:22:58;;;;;;;;;;;;;;;19.17;74.62;101199.03;4968387;28;19918;-75
2023/06/18 04:25:24;;;;;;;;;;;;;;;19.17;75.03;101203.72;4951461;28;19918;-74
2023/06/18 04:27:49;;;;;;;;;;;;;;;19.15;74.45;101203.13;4953885;28;19936;-75
2023/06/18 04:30:16;;;;;;;;;;;;;;;19.21;74.28;101210.50;4970944;28;19972;-75
2023/06/18 04:32:41;;;;;;;;;;;;;;;19.28;74.61;101200.13;4970485;28;19968;-75
2023/06/18 04:35:07;;;;;;;;;;;;;;;19.31;73.94;101207.97;4967176;28;20381;-75
2023/06/18 04:37:32;;;;;;;;;;;;;;;19.42;73.83;101212.66;4968275;28;19965;-76
2023/06/18 04:39:57;;;;;;;;;;;;;;;19.44;73.42;101210.47;4969669;28;19918;-76
2023/06/18 04:42:23;;;;;;;;;;;;;;;19.53;73.42;101211.78;4969362;28;19976;-75
2023/06/18 04:44:48;;;;;;;;;;;;;;;19.53;73.79;101218.16;4965484;28;19914;-76
2023/06/18 04:47:14;;;;;;;;;;;;;;;19.69;72.80;101214.59;4972842;28;19918;-76
2023/06/18 04:49:39;;;;;;;;;;;;;;;19.79;72.74;101214.78;4951977;28;19914;-76
2023/06/18 04:52:05;;;;;;;;;;;;;;;19.94;72.06;101212.31;4971882;28;20372;-76
2023/06/18 04:54:30;;;;;;;;;;;;;;;20.04;71.65;101218.06;4954102;28;20343;-76
2023/06/18 04:56:58;;;;;;;;;;;;;;;20.16;71.09;101204.97;4955787;28;19918;-76
2023/06/18 04:59:24;;;;;;;;;;;;;;;20.30;70.29;101213.81;4971437;28;20384;-76
2023/06/18 05:01:50;;;;;;;;;;;;;;;20.44;69.75;101212.41;4955289;28;19921;-75
2023/06/18 05:04:16;;;;;;;;;;;;;;;20.58;69.35;101216.53;4971955;28;20049;-75
2023/06/18 05:06:41;;;;;;;;;;;;;;;20.67;68.69;101215.00;4970338;28;20008;-75
2023/06/18 05:09:07;;;;;;;;;;;;;;;20.75;68.20;101211.81;4969934;28;19925;-75
2023/06/18 05:11:32;;;;;;;;;;;;;;;20.94;66.99;101213.22;4975632;28;20412;-76
2023/06/18 05:13:58;;;;;;;;;;;;;;;21.09;66.44;101216.25;4970912;28;20285;-75
2023/06/18 05:16:23;;;;;;;;;;;;;;;21.09;66.12;101205.09;4973599;28;20395;-76
2023/06/18 05:18:49;;;;;;;;;;;;;;;21.30;65.49;101215.41;4969437;28;20382;-76
2023/06/18 05:21:15;;;;;;;;;;;;;;;21.43;65.06;101223.38;4973410;28;19978;-75
2023/06/18 05:23:41;;;;;;;;;;;;;;;21.57;64.52;101219.13;4971053;28;19922;-74
2023/06/18 05:26:06;;;;;;;;;;;;;;;21.65;63.95;101218.66;4955383;28;20369;-75
2023/06/18 05:28:31;;;;;;;;;;;;;;;21.66;63.40;101214.78;4961086;28;19918;-75
2023/06/18 05:30:57;;;;;;;;;;;;;;;21.57;63.47;101216.31;4955721;28;19949;-75
2023/06/18 05:33:22;;;;;;;;;;;;;;;21.55;63.66;101222.16;4973252;28;19914;-76
2023/06/18 05:35:48;;;;;;;;;;;;;;;21.67;62.42;101220.06;4970673;28;20358;-75
2023/06/18 05:38:13;;;;;;;;;;;;;;;21.69;61.06;101229.06;4971514;28;19925;-75
2023/06/18 05:40:39;;;;;;;;;;;;;;;21.58;61.15;101231.94;4972701;28;19913;-75
2023/06/18 05:43:05;;;;;;;;;;;;;;;21.66;60.92;101228.72;4973943;28;19910;-75
2023/06/18 05:45:30;;;;;;;;;;;;;;;21.61;60.43;101232.28;4973235;28;20020;-76
2023/06/18 05:47:55;;;;;;;;;;;;;;;21.46;61.73;101253.56;4969659;28;20029;-75
2023/06/18 05:50:21;;;;;;;;;;;;;;;21.43;61.82;101299.50;4974431;28;19972;-74
2023/06/18 05:52:46;;;;;;;;;;;;;;;21.31;61.04;101286.78;4970197;28;19925;-75
2023/06/18 05:55:13;;;;;;;;;;;;;;;21.20;59.95;101249.59;4970746;28;20415;-74
2023/06/18 05:57:38;;;;;;;;;;;;;;;21.32;58.77;101271.75;4949264;28;19926;-77
2023/06/18 06:00:04;;;;;;;;;;;;;;;21.26;58.99;101295.06;4972279;28;19940;-76
2023/06/18 06:02:29;;;;;;;;;;;;;;;21.19;58.69;101284.09;4969727;28;19976;-75
2023/06/18 06:04:54;;;;;;;;;;;;;;;21.27;58.03;101271.66;4970232;28;20373;-75
2023/06/18 06:07:21;;;;;;;;;;;;;;;21.25;58.04;101271.09;4955058;28;19921;-76
2023/06/18 06:09:46;;;;;;;;;;;;;;;21.20;58.47;101276.59;4972732;28;19921;-76
2023/06/18 06:12:12;;;;;;;;;;;;;;;21.20;58.62;101283.03;4967409;28;19918;-76
2023/06/18 06:14:37;;;;;;;;;;;;;;;21.20;58.21;101280.22;4957224;28;19918;-76
2023/06/18 06:17:03;;;;;;;;;;;;;;;21.18;58.57;101268.47;4956542;28;20016;-76
2023/06/18 06:19:28;;;;;;;;;;;;;;;21.23;58.74;101276.91;4975629;28;20489;-75
2023/06/18 06:21:54;;;;;;;;;;;;;;;21.21;59.03;101275.47;4959789;28;19933;-76
2023/06/18 06:24:20;;;;;;;;;;;;;;;21.22;59.86;101274.38;4955178;28;20000;-75
2023/06/18 06:26:45;;;;;;;;;;;;;;;21.26;60.33;101272.78;4974521;28;20029;-76
2023/06/18 06:29:10;;;;;;;;;;;;;;;21.33;59.14;101265.06;4954576;28;19918;-76
2023/06/18 06:31:36;;;;;;;;;;;;;;;21.40;59.34;101261.00;4957754;28;20001;-75
2023/06/18 06:34:01;;;;;;;;;;;;;;;21.42;60.44;101258.81;4942439;28;19918;-75
2023/06/18 06:36:26;;;;;;;;;;;;;;;21.55;59.69;101252.84;4944157;28;19918;-76
2023/06/18 06:38:51;;;;;;;;;;;;;;;21.63;59.69;101262.69;4961926;28;19918;-75
2023/06/18 06:41:17;;;;;;;;;;;;;;;21.78;58.38;101258.16;4944330;28;19985;-75
2023/06/18 06:43:42;;;;;;;;;;;;;;;21.99;58.65;101260.09;4945045;28;19918;-75
2023/06/18 06:46:08;;;;;;;;;;;;;;;22.12;57.71;101264.41;4959600;28;20016;-75
2023/06/18 06:48:33;;;;;;;;;;;;;;;22.17;58.00;101270.06;4963162;28;20139;-75
2023/06/18 06:50:58;;;;;;;;;;;;;;;22.21;57.83;101277.66;4960139;28;20010;-75
2023/06/18 06:53:24;;;;;;;;;;;;;;;22.26;57.17;101276.88;4956759;28;20472;-75
2023/06/18 06:55:49;;;;;;;;;;;;;;;22.26;57.97;101280.47;4942591;28;19965;-76
2023/06/18 06:58:14;;;;;;;;;;;;;;;22.25;57.90;101277.97;4941901;28;19922;-76
2023/06/18 07:00:40;;;;;;;;;;;;;;;22.32;57.90;101284.19;4961897;28;19930;-76
2023/06/18 07:03:05;;;;;;;;;;;;;;;22.29;57.97;101273.53;4959034;28;19948;-76
2023/06/18 07:05:30;;;;;;;;;;;;;;;22.38;57.91;101288.72;4959105;28;19957;-76
2023/06/18 07:07:57;;;;;;;;;;;;;;;22.35;57.91;101278.91;4941880;28;20579;-75
2023/06/18 07:10:22;;;;;;;;;;;;;;;22.62;57.22;101290.09;4942828;28;20308;-75
2023/06/18 07:12:47;;;;;;;;;;;;;;;22.80;57.73;101295.28;4961750;28;19933;-75
2023/06/18 07:15:13;;;;;;;;;;;;;;;23.05;56.33;101293.53;4944560;28;20143;-75
2023/06/18 07:17:38;;;;;;;;;;;;;;;23.66;54.69;101289.19;4954037;28;20333;-75
2023/06/18 07:20:03;;;;;;;;;;;;;;;23.66;54.87;101297.56;4961691;28;20274;-75
2023/06/18 07:22:29;;;;;;;;;;;;;;;23.75;55.13;101281.97;4960485;28;19957;-75
2023/06/18 07:24:56;;;;;;;;;;;;;;;23.92;54.06;101288.22;4954291;28;19914;-74
2023/06/18 07:27:21;;;;;;;;;;;;;;;24.05;52.98;101280.16;4973681;28;20345;-74
2023/06/18 07:29:48;;;;;;;;;;;;;;;24.10;52.40;101287.72;4967937;28;20292;-74
2023/06/18 07:32:14;;;;;;;;;;;;;;;24.17;53.96;101285.50;4971257;28;19956;-75
2023/06/18 07:34:40;;;;;;;;;;;;;;;24.14;54.23;101280.44;4965789;28;19920;-76
2023/06/18 07:37:05;;;;;;;;;;;;;;;24.27;52.53;101289.16;4968955;28;20408;-76
2023/06/18 07:39:30;;;;;;;;;;;;;;;24.20;52.74;101282.13;4951497;28;19910;-77
2023/06/18 07:41:56;;;;;;;;;;;;;;;24.22;53.94;101279.91;4972324;28;19977;-76
2023/06/18 07:44:21;;;;;;;;;;;;;;;24.17;50.89;101277.94;4973178;28;19921;-75
2023/06/18 07:46:47;;;;;;;;;;;;;;;24.53;50.38;101278.84;4973234;28;20004;-76
2023/06/18 07:49:12;;;;;;;;;;;;;;;24.70;49.44;101282.28;4953002;28;19929;-76
2023/06/18 07:51:38;;;;;;;;;;;;;;;24.84;49.74;101280.56;4972743;28;19914;-76
2023/06/18 07:54:03;;;;;;;;;;;;;;;25.00;49.34;101280.28;4970966;28;20294;-76
2023/06/18 07:56:29;;;;;;;;;;;;;;;25.03;49.41;101279.72;4953142;28;20392;-77
2023/06/18 07:58:54;;;;;;;;;;;;;;;25.03;49.27;101284.50;4952327;28;20464;-76
2023/06/18 08:01:20;;;;;;;;;;;;;;;25.05;48.58;101285.91;4950096;29;19918;-76
2023/06/18 08:03:45;;;;;;;;;;;;;;;25.23;48.13;101276.88;4970559;28;19985;-76
2023/06/18 08:06:10;;;;;;;;;;;;;;;25.31;47.45;101286.72;4951704;29;19914;-76
2023/06/18 08:08:36;;;;;;;;;;;;;;;25.23;48.23;101284.47;4966294;28;19915;-76
2023/06/18 08:11:01;;;;;;;;;;;;;;;25.29;47.90;101274.97;4952155;28;20306;-76
2023/06/18 08:13:27;;;;;;;;;;;;;;;25.22;47.99;101279.97;4968844;28;19917;-76
2023/06/18 08:15:52;;;;;;;;;;;;;;;25.12;47.92;101274.41;4966581;28;20239;-75
2023/06/18 08:18:18;;;;;;;;;;;;;;;25.14;49.85;101278.56;4967536;28;19964;-74
2023/06/18 08:20:44;;;;;;;;;;;;;;;25.27;48.88;101271.56;4965960;28;19965;-74
2023/06/18 08:23:09;;;;;;;;;;;;;;;25.23;49.20;101273.25;4972856;28;19918;-74
2023/06/18 08:25:35;;;;;;;;;;;;;;;25.16;49.99;101267.94;4973509;28;19914;-75
2023/06/18 08:28:00;;;;;;;;;;;;;;;25.28;49.83;101253.66;4955911;28;19918;-76
2023/06/18 08:30:26;;;;;;;;;;;;;;;25.17;50.23;101258.38;4974118;28;19913;-75
2023/06/18 08:32:51;;;;;;;;;;;;;;;25.23;49.56;101273.25;4972998;28;19925;-75
2023/06/18 08:35:17;;;;;;;;;;;;;;;25.26;49.93;101265.16;4971513;28;19925;-75
2023/06/18 08:37:42;;;;;;;;;;;;;;;25.21;50.29;101269.88;4970992;28;19921;-75
2023/06/18 08:40:12;;;;;;;;;;;;;;;25.52;50.59;101274.31;4968176;28;19914;-75
2023/06/18 08:42:37;;;;;;;;;;;;;;;25.48;50.00;101271.25;4973201;28;20369;-76
2023/06/18 08:45:05;;;;;;;;;;;;;;;25.41;50.74;101270.72;4956230;28;19965;-76
2023/06/18 08:47:32;;;;;;;;;;;;;;;25.43;50.54;101270.41;4973877;28;19925;-76
2023/06/18 08:49:58;;;;;;;;;;;;;;;25.54;51.37;101272.91;4956456;28;19918;-77
2023/06/18 08:52:25;;;;;;;;;;;;;;;25.44;51.09;101272.13;4953208;28;20013;-74
2023/06/18 08:54:53;;;;;;;;;;;;;;;25.61;50.96;101275.44;4971817;28;20294;-72
2023/06/18 08:57:29;;;;;;;;;;;;;;;25.41;51.56;101267.91;4972606;28;19945;-73
2023/06/18 08:59:57;;;;;;;;;;;;;;;25.34;52.36;101270.16;4969639;28;19921;-72
2023/06/18 09:02:24;;;;;;;;;;;;;;;25.35;52.00;101274.63;4964775;28;19996;-72
2023/06/18 09:04:49;;;;;;;;;;;;;;;25.29;52.73;101263.75;4969844;28;20329;-72
2023/06/18 09:07:15;;;;;;;;;;;;;;;25.26;52.84;101270.75;4953835;28;19928;-72
2023/06/18 09:09:40;;;;;;;;;;;;;;;25.36;52.93;101261.47;4965392;28;19972;-72
2023/06/18 09:12:06;;;;;;;;;;;;;;;25.54;52.59;101256.06;4967319;28;19953;-72
2023/06/18 09:14:32;;;;;;;;;;;;;;;25.23;54.37;101257.25;4972338;28;20439;-72
2023/06/18 09:16:57;;;;;;;;;;;;;;;25.33;54.47;101251.66;4974216;28;19922;-71
2023/06/18 09:19:23;;;;;;;;;;;;;;;25.37;54.22;101263.16;4972380;28;19968;-72
2023/06/18 09:21:48;;;;;;;;;;;;;;;25.51;54.26;101262.25;4972943;28;19914;-70
2023/06/18 09:24:21;;;;;;;;;;;;;;;25.21;55.20;101261.47;4973382;28;19922;-73
2023/06/18 09:26:47;;;;;;;;;;;;;;;25.11;55.06;101264.28;4971763;28;19949;-72
2023/06/18 09:29:13;;;;;;;;;;;;;;;24.92;55.91;101266.81;4974374;28;19918;-72
2023/06/18 09:31:44;;;;;;;;;;;;;;;25.25;55.15;101265.41;4972290;28;20293;-72
2023/06/18 09:34:13;;;;;;;;;;;;;;;25.28;54.03;101260.06;4972328;28;19913;-71
2023/06/18 09:36:40;;;;;;;;;;;;;;;25.10;55.21;101266.25;4952217;28;20305;-72
2023/06/18 09:39:13;;;;;;;;;;;;;;;25.01;55.33;101251.13;4968163;28;20326;-72
2023/06/18 09:41:40;;;;;;;;;;;;;;;25.10;54.82;101259.81;4954827;28;19913;-72
2023/06/18 09:44:07;;;;;;;;;;;;;;;24.93;56.45;101248.06;4970717;28;19914;-72
2023/06/18 09:46:32;;;;;;;;;;;;;;;24.71;56.46;101247.50;4956369;28;19924;-71
2023/06/18 09:48:57;;;;;;;;;;;;;;;24.85;56.07;101251.41;4971637;28;20000;-71
2023/06/18 09:51:24;;;;;;;;;;;;;;;24.86;56.45;101251.13;4972927;28;19914;-71
2023/06/18 09:53:57;;;;;;;;;;;;;;;24.72;55.96;101246.38;4954834;28;19914;-72
2023/06/18 09:56:23;;;;;;;;;;;;;;;24.64;56.17;101250.59;4972096;28;19973;-71
2023/06/18 09:58:50;;;;;;;;;;;;;;;24.79;56.33;101253.38;4955375;28;20349;-71
2023/06/18 10:01:16;;;;;;;;;;;;;;;24.61;57.67;101253.97;4972247;28;20004;-71
2023/06/18 10:03:42;;;;;;;;;;;;;;;24.73;58.85;101256.47;4955372;28;19997;-71
2023/06/18 10:06:17;;;;;;;;;;;;;;;24.56;60.85;101253.06;4971188;28;19921;-71
2023/06/18 10:08:43;;;;;;;;;;;;;;;24.51;64.47;101251.13;4953910;28;19917;-72
2023/06/18 10:11:09;;;;;;;;;;;;;;;24.49;63.87;101258.94;4971922;28;19964;-72
2023/06/18 10:13:38;;;;;;;;;;;;;;;24.39;65.79;101252.50;4972553;28;19953;-72
2023/06/18 10:16:05;;;;;;;;;;;;;;;24.55;65.56;101248.59;4950716;28;19913;-72
2023/06/18 10:18:30;;;;;;;;;;;;;;;24.45;66.03;101251.38;4969783;28;19925;-72
2023/06/18 10:20:57;;;;;;;;;;;;;;;24.56;64.70;101247.47;4971410;28;19914;-72
2023/06/18 10:23:24;;;;;;;;;;;;;;;24.70;63.83;101243.84;4952450;28;19922;-72
2023/06/18 10:25:49;;;;;;;;;;;;;;;24.71;63.58;101245.53;4973077;28;19945;-72
2023/06/18 10:28:15;;;;;;;;;;;;;;;24.84;64.19;101230.97;4969868;28;20329;-72
2023/06/18 10:30:40;;;;;;;;;;;;;;;24.78;63.93;101240.50;4970209;28;19925;-72
2023/06/18 10:33:05;;;;;;;;;;;;;;;24.86;62.71;101230.69;4968600;28;20344;-71
2023/06/18 10:35:31;;;;;;;;;;;;;;;24.89;63.50;101233.75;4972928;28;19920;-72
2023/06/18 10:37:57;;;;;;;;;;;;;;;24.77;61.62;101226.75;4970104;28;20036;-72
2023/06/18 10:40:22;;;;;;;;;;;;;;;24.75;61.36;101229.03;4972653;28;19922;-72
2023/06/18 10:42:49;;;;;;;;;;;;;;;24.86;60.26;101228.72;4954845;28;19931;-72
2023/06/18 10:45:15;;;;;;;;;;;;;;;24.84;61.22;101219.75;4971617;28;19933;-72
2023/06/18 10:47:41;;;;;;;;;;;;;;;24.94;61.51;101224.50;4969416;28;20377;-72
2023/06/18 10:50:06;;;;;;;;;;;;;;;25.01;58.51;101214.66;4972485;28;19965;-71
2023/06/18 10:52:38;;;;;;;;;;;;;;;24.98;60.61;101201.22;4969489;28;19924;-71
2023/06/18 10:55:11;;;;;;;;;;;;;;;24.96;58.48;101199.84;4952896;28;19910;-72
2023/06/18 10:57:41;;;;;;;;;;;;;;;24.72;60.18;101201.53;4970190;28;20380;-73
2023/06/18 11:00:29;;;;;;;;;;;;;;;24.65;58.15;101203.81;4972894;28;20512;-72
2023/06/18 11:02:59;;;;;;;;;;;;;;;25.04;58.36;101200.09;4951481;28;19914;-72
2023/06/18 11:05:37;;;;;;;;;;;;;;;25.15;57.89;101203.69;4954773;28;20278;-72
2023/06/18 11:08:06;;;;;;;;;;;;;;;25.24;58.18;101205.63;4952160;28;20000;-72
2023/06/18 11:10:31;;;;;;;;;;;;;;;25.34;57.55;101200.03;4951571;28;20242;-72
2023/06/18 11:12:57;;;;;;;;;;;;;;;25.59;55.96;101199.09;4969482;28;19924;-72
2023/06/18 11:15:22;;;;;;;;;;;;;;;25.64;54.44;101193.44;4972834;28;19914;-72
2023/06/18 11:18:00;;;;;;;;;;;;;;;25.51;55.86;101199.69;4951877;28;20299;-71
2023/06/18 11:20:26;;;;;;;;;;;;;;;25.65;55.96;101195.13;4974322;28;19920;-72
2023/06/18 11:22:54;;;;;;;;;;;;;;;25.70;55.76;101195.94;4953659;28;19918;-72
2023/06/18 11:25:19;;;;;;;;;;;;;;;25.75;56.56;101197.88;4971309;28;20381;-72
2023/06/18 11:27:45;;;;;;;;;;;;;;;25.77;55.39;101201.25;4969644;28;21511;-72
2023/06/18 11:30:12;;;;;;;;;;;;;;;25.82;56.14;101196.44;4954307;28;19914;-72
2023/06/18 11:32:38;;;;;;;;;;;;;;;25.99;56.48;101199.72;4970351;28;19965;-71
2023/06/18 11:35:07;;;;;;;;;;;;;;;26.14;54.86;101208.06;4953238;28;19956;-73
2023/06/18 11:37:33;;;;;;;;;;;;;;;26.11;53.95;101207.81;4952149;28;19929;-71
2023/06/18 11:39:58;;;;;;;;;;;;;;;26.00;54.46;101194.97;4953569;28;19911;-71
2023/06/18 11:42:27;;;;;;;;;;;;;;;25.89;54.38;101207.34;4969158;28;19918;-71
2023/06/18 11:44:53;;;;;;;;;;;;;;;25.69;53.93;101204.66;4971088;28;19925;-71
2023/06/18 11:47:19;;;;;;;;;;;;;;;25.69;53.91;101197.09;4951976;28;20456;-72
2023/06/18 11:49:49;;;;;;;;;;;;;;;25.62;55.24;101204.13;4971145;28;19917;-71
2023/06/18 11:52:15;;;;;;;;;;;;;;;25.74;55.59;101199.88;4952099;28;19918;-71
2023/06/18 11:54:40;;;;;;;;;;;;;;;25.70;55.36;101197.91;4970653;28;20412;-71
2023/06/18 11:57:10;;;;;;;;;;;;;;;25.76;55.00;101193.97;4955312;28;19961;-71
2023/06/18 11:59:36;;;;;;;;;;;;;;;25.63;55.18;101189.81;4973651;28;19914;-72
2023/06/18 12:02:11;;;;;;;;;;;;;;;25.67;54.31;101184.47;4969143;28;20009;-72
2023/06/18 12:04:36;;;;;;;;;;;;;;;25.34;54.44;101183.19;4972909;28;19914;-72
2023/06/18 12:07:02;;;;;;;;;;;;;;;25.35;55.08;101181.25;4973456;28;19973;-72
2023/06/18 12:09:30;;;;;;;;;;;;;;;25.49;55.77;101176.66;4957063;28;20329;-72
2023/06/18 12:11:55;;;;;;;;;;;;;;;25.38;55.77;101173.09;4973004;28;19924;-72
2023/06/18 12:14:28;;;;;;;;;;;;;;;25.35;55.14;101175.63;4974254;28;20004;-72
2023/06/18 12:16:56;;;;;;;;;;;;;;;25.35;54.74;101176.44;4956265;28;19926;-72
2023/06/18 12:19:22;;;;;;;;;;;;;;;25.30;55.97;101173.66;4955042;28;20174;-72
2023/06/18 12:21:48;;;;;;;;;;;;;;;25.36;55.19;101174.50;4954850;28;20012;-72
2023/06/18 12:24:13;;;;;;;;;;;;;;;25.46;54.73;101169.66;4972620;28;20370;-72
2023/06/18 12:26:38;;;;;;;;;;;;;;;25.52;54.81;101168.53;4973491;28;19918;-71
2023/06/18 12:29:05;;;;;;;;;;;;;;;25.56;54.64;101168.81;4967009;28;19918;-72
2023/06/18 12:31:30;;;;;;;;;;;;;;;25.69;55.15;101173.78;4969417;28;19965;-72
2023/06/18 12:33:56;;;;;;;;;;;;;;;25.77;53.84;101159.16;4973373;28;20298;-74
2023/06/18 12:36:27;;;;;;;;;;;;;;;25.56;54.41;101164.00;4969027;28;19914;-75